Kirkham, United Kingdom
Current Conditions -  °F | °C
As of 12:50 PM on Saturday 20 Dec 2014 (Local Time) from EGNO Reporting Station
Broken Clouds Broken Clouds  
Wind Chill: 39°   Ceiling: 4100
Heat Index: 46°   Visibility: 6mi
Dew Point: 39°   Wind: 18mph
Humidity: 76%   Direction: 290°WNW
Pressure: 30.24"   Gusts: NA
Location:  53.78°N, 2.87°W
Report Text: EGNO 201250Z 29016KT 9999 FEW018 BKN041 08/04 Q1024
Loading
Personal Weather Stations






























Interactive Weather Map New forecast layout! Learn more

10-Day Weather Forecast

Advertisements
Track Severe Weather on mobile